Time;durP1;ratioP1;P1;durP2;ratioP2;P2;SDS_P1;SDS_P2;PMS_P1;PMS_P2;Temp;Humidity;BMP_temperature;BMP_pressure;BME280_temperature;BME280_humidity;BME280_pressure;Samples;Min_cycle;Max_cycle;Signal;HPM_P1;HPM_P2
2024/04/16 00:00:03;;;;;;;1.60;1.00;;;7.00;75.60;;;8.99;54.08;96843.75;5448443;26;20401;-36
2024/04/16 00:02:38;;;;;;;2.23;0.83;;;7.00;75.20;;;9.04;54.06;96832.63;5452628;26;20382;-36
2024/04/16 00:05:06;;;;;;;1.13;0.80;;;7.10;74.70;;;9.06;53.70;96844.72;5452229;26;20357;-34
2024/04/16 00:07:34;;;;;;;1.80;0.87;;;7.20;74.50;;;9.06;53.94;96836.75;5452543;26;20034;-34
2024/04/16 00:10:02;;;;;;;1.43;0.87;;;7.20;74.20;;;9.08;53.97;96844.56;5452783;26;20074;-34
2024/04/16 00:12:30;;;;;;;1.87;0.93;;;7.20;73.80;;;9.08;53.88;96836.59;5453054;26;20031;-34
2024/04/16 00:15:17;;;;;;;1.27;0.90;;;7.20;74.40;;;9.03;53.91;96839.78;5452639;26;20027;-34
2024/04/16 00:17:45;;;;;;;2.43;1.00;;;7.20;74.20;;;9.04;54.07;96846.72;5449512;26;20510;-34
2024/04/16 00:20:13;;;;;;;1.87;0.90;;;7.10;74.90;;;9.05;54.11;96844.91;5419426;26;20043;-34
2024/04/16 00:22:42;;;;;;;3.03;1.00;;;7.00;75.40;;;9.08;53.83;96844.56;5420444;26;20047;-35
2024/04/16 00:25:11;;;;;;;4.00;1.53;;;7.00;74.70;;;9.08;54.11;96831.28;5433928;26;20043;-35
2024/04/16 00:27:39;;;;;;;0.90;0.80;;;7.10;74.50;;;9.03;53.82;96826.50;5390703;26;20050;-35
2024/04/16 00:30:07;;;;;;;5.10;0.83;;;7.00;74.50;;;9.00;53.79;96810.91;5452460;26;20035;-35
2024/04/16 00:32:34;;;;;;;1.27;0.90;;;7.10;74.70;;;8.97;53.82;96787.34;5420045;26;20035;-35
2024/04/16 00:35:03;;;;;;;4.43;1.23;;;7.00;75.00;;;8.95;54.17;96807.94;5452186;26;20046;-35
2024/04/16 00:37:31;;;;;;;2.17;1.10;;;7.00;75.50;;;8.95;54.18;96812.41;5452704;26;20049;-35
2024/04/16 00:39:59;;;;;;;2.00;0.90;;;6.90;75.70;;;8.94;54.20;96811.59;5452121;26;20479;-35
2024/04/16 00:42:27;;;;;;;2.90;1.40;;;6.90;75.60;;;8.97;53.99;96810.41;5452416;26;20038;-35
2024/04/16 00:44:55;;;;;;;4.23;1.00;;;6.90;75.30;;;8.96;54.08;96808.78;5451720;26;20034;-35
2024/04/16 00:47:23;;;;;;;3.40;1.27;;;7.00;75.40;;;8.93;53.88;96806.44;5451351;26;20058;-35
2024/04/16 00:49:52;;;;;;;3.37;1.03;;;6.90;75.90;;;8.92;53.92;96802.13;5420158;26;20027;-35
2024/04/16 00:52:20;;;;;;;3.27;1.30;;;7.00;74.90;;;8.90;54.19;96802.31;5420700;26;20038;-35
2024/04/16 00:54:49;;;;;;;6.80;1.63;;;6.90;75.40;;;8.89;54.05;96787.38;5420059;26;20035;-35
2024/04/16 00:57:17;;;;;;;4.90;1.23;;;6.90;75.40;;;8.89;54.40;96787.38;5419607;26;20030;-35
2024/04/16 00:59:46;;;;;;;1.20;0.90;;;6.90;76.40;;;8.85;54.29;96784.25;5452099;26;20034;-35
2024/04/16 01:02:14;;;;;;;2.03;1.03;;;6.90;76.70;;;8.86;54.66;96796.53;5420782;26;20050;-35
2024/04/16 01:04:42;;;;;;;1.60;0.93;;;6.90;76.70;;;8.90;54.80;96782.88;5449434;26;20007;-35
2024/04/16 01:07:11;;;;;;;3.47;2.77;;;6.90;77.70;;;8.92;54.90;96763.16;5451915;26;20063;-35
2024/04/16 01:09:38;;;;;;;3.33;1.10;;;6.90;77.50;;;8.85;54.68;96764.84;5450916;26;20031;-35
2024/04/16 01:12:06;;;;;;;3.70;1.10;;;6.90;76.20;;;8.79;54.86;96770.84;5418981;26;20130;-35
2024/04/16 01:14:34;;;;;;;3.97;1.37;;;6.90;76.20;;;8.76;55.17;96785.28;5418200;26;20027;-35
2024/04/16 01:17:02;;;;;;;3.80;1.00;;;6.90;77.10;;;8.82;55.02;96776.63;5451676;26;20034;-36
2024/04/16 01:19:29;;;;;;;3.90;1.40;;;6.90;78.20;;;8.82;55.22;96781.09;5451660;26;20040;-35
2024/04/16 01:21:57;;;;;;;3.90;1.30;;;6.90;77.70;;;8.81;55.53;96774.16;5450132;26;20034;-35
2024/04/16 01:24:25;;;;;;;2.00;1.10;;;6.90;78.60;;;8.85;55.73;96770.97;5451002;26;20051;-35
2024/04/16 01:26:53;;;;;;;2.43;1.07;;;6.80;78.90;;;8.91;55.09;96763.31;5451579;26;20026;-35
2024/04/16 01:29:20;;;;;;;2.60;1.40;;;6.90;77.90;;;8.93;55.00;96758.66;5450287;26;20039;-35
2024/04/16 01:31:48;;;;;;;3.00;1.43;;;6.90;77.80;;;8.93;55.15;96737.44;5449559;26;20046;-35
2024/04/16 01:34:16;;;;;;;2.83;1.30;;;6.90;78.10;;;8.92;55.04;96762.31;5450631;26;20035;-35
2024/04/16 01:36:44;;;;;;;6.07;1.37;;;6.90;77.20;;;8.86;54.88;96735.47;5451434;26;20043;-35
2024/04/16 01:39:12;;;;;;;4.33;2.03;;;6.80;77.30;;;8.90;55.13;96737.78;5451500;26;20040;-35
2024/04/16 01:41:39;;;;;;;4.00;1.30;;;6.80;77.70;;;8.85;55.16;96760.34;5451601;26;20482;-35
2024/04/16 01:44:07;;;;;;;1.97;1.30;;;6.90;77.40;;;8.85;55.34;96773.63;5450833;26;20047;-36
2024/04/16 01:46:35;;;;;;;6.43;1.37;;;6.90;77.60;;;8.82;55.18;96770.47;5451217;26;20042;-36
2024/04/16 01:49:03;;;;;;;7.67;1.60;;;6.90;77.20;;;8.51;56.15;96768.59;5449988;26;20038;-35
2024/04/16 01:51:31;;;;;;;4.57;2.80;;;6.70;78.50;;;8.42;56.67;96749.22;5450365;26;20031;-36
2024/04/16 01:53:58;;;;;;;6.60;1.80;;;6.60;80.70;;;8.41;56.79;96725.47;5450794;26;20050;-35
2024/04/16 01:56:26;;;;;;;3.23;1.63;;;6.60;80.70;;;8.34;56.95;96743.09;5451444;26;20051;-35
2024/04/16 01:58:54;;;;;;;4.47;1.97;;;6.50;79.70;;;8.38;56.65;96739.91;5417745;26;20047;-35
2024/04/16 02:01:22;;;;;;;5.03;1.60;;;6.60;80.10;;;8.25;57.19;96745.72;5450843;26;20038;-36
2024/04/16 02:03:50;;;;;;;7.20;1.93;;;6.60;80.20;;;8.22;57.43;96737.28;5449324;26;20038;-36
2024/04/16 02:06:18;;;;;;;5.40;1.60;;;6.50;80.00;;;8.35;57.07;96737.59;5451271;26;20065;-36
2024/04/16 02:08:46;;;;;;;5.87;1.73;;;6.60;78.60;;;8.50;56.61;96728.97;5450896;26;20042;-36
2024/04/16 02:11:14;;;;;;;7.47;2.17;;;6.80;78.60;;;8.56;56.48;96745.03;5450642;26;20042;-36
2024/04/16 02:13:41;;;;;;;4.50;2.37;;;6.80;79.00;;;8.65;56.35;96722.78;5450490;26;20336;-36
2024/04/16 02:16:09;;;;;;;5.30;1.70;;;6.80;78.00;;;8.68;56.01;96729.56;5450930;26;20494;-36
2024/04/16 02:18:37;;;;;;;6.30;1.97;;;6.90;76.00;;;8.70;55.72;96724.09;5450482;26;20476;-36
2024/04/16 02:21:05;;;;;;;8.50;1.97;;;6.90;76.50;;;8.73;55.61;96706.00;5451095;26;20039;-36
2024/04/16 02:23:33;;;;;;;5.37;1.97;;;6.90;77.20;;;8.67;55.35;96715.47;5448774;26;20043;-36
2024/04/16 02:26:00;;;;;;;4.27;1.50;;;6.90;75.20;;;8.63;56.00;96698.25;5450632;26;20459;-36
2024/04/16 02:28:28;;;;;;;5.80;1.83;;;6.80;76.70;;;8.49;55.33;96709.56;5450810;26;20038;-36
2024/04/16 02:30:56;;;;;;;6.10;1.90;;;6.70;75.60;;;8.43;55.80;96711.09;5450195;26;20026;-36
2024/04/16 02:33:24;;;;;;;8.70;1.90;;;6.70;76.10;;;8.51;56.06;96686.38;5450412;26;20387;-36
2024/04/16 02:35:51;;;;;;;10.53;3.60;;;6.80;76.40;;;8.60;55.90;96692.47;5450289;26;20036;-36
2024/04/16 02:38:19;;;;;;;5.33;1.87;;;6.90;76.00;;;8.62;55.33;96703.72;5450793;26;20373;-36
2024/04/16 02:40:47;;;;;;;6.00;1.53;;;6.90;75.20;;;8.47;55.51;96693.00;5450631;26;20344;-36
2024/04/16 02:43:14;;;;;;;4.53;1.50;;;6.80;75.60;;;8.56;55.70;96705.22;5450478;26;20030;-36
2024/04/16 02:45:42;;;;;;;4.63;2.90;;;6.90;74.70;;;8.51;55.38;96707.59;5410322;26;20487;-36
2024/04/16 02:48:10;;;;;;;5.60;1.90;;;6.80;74.80;;;8.46;55.52;96712.56;5448839;26;20031;-36
2024/04/16 02:50:39;;;;;;;2.53;1.20;;;6.80;74.30;;;8.47;55.02;96723.03;5450848;26;20055;-37
2024/04/16 02:53:06;;;;;;;6.23;1.77;;;6.80;74.50;;;8.43;55.17;96719.06;5418752;26;20404;-36
2024/04/16 02:55:34;;;;;;;6.90;1.60;;;6.80;74.60;;;8.41;55.39;96729.00;5417726;26;20050;-37
2024/04/16 02:58:02;;;;;;;8.57;1.80;;;6.80;74.30;;;8.40;55.32;96727.31;5404858;26;20062;-37
2024/04/16 03:00:30;;;;;;;3.07;1.57;;;6.80;73.70;;;8.26;55.56;96728.00;5450950;26;20047;-36
2024/04/16 03:02:58;;;;;;;7.20;1.50;;;6.70;74.10;;;8.20;55.43;96732.16;5450113;26;20343;-37
2024/04/16 03:05:26;;;;;;;5.33;2.57;;;6.60;75.00;;;8.16;55.46;96730.84;5449883;26;20042;-36
2024/04/16 03:07:54;;;;;;;5.10;1.40;;;6.50;74.60;;;8.15;55.35;96742.44;5450191;26;20026;-36
2024/04/16 03:10:21;;;;;;;2.47;1.67;;;6.40;74.50;;;7.97;55.77;96712.63;5450087;26;20035;-36
2024/04/16 03:12:53;;;;;;;6.07;2.10;;;6.40;74.60;;;7.99;55.62;96722.09;5450375;26;20042;-36
2024/04/16 03:15:21;;;;;;;4.80;1.30;;;6.40;74.70;;;7.83;55.82;96711.47;5432282;26;20374;-36
2024/04/16 03:17:51;;;;;;;8.80;4.10;;;6.30;74.50;;;7.72;55.86;96723.25;5450092;26;20030;-36
2024/04/16 03:20:19;;;;;;;4.30;1.50;;;6.10;75.20;;;7.65;56.22;96723.06;5450347;26;20031;-36
2024/04/16 03:22:50;;;;;;;4.87;1.73;;;6.10;74.90;;;7.51;56.44;96734.34;5449857;26;20034;-36
2024/04/16 03:25:18;;;;;;;6.20;1.87;;;6.00;75.30;;;7.47;56.51;96720.59;5449587;26;20043;-36
2024/04/16 03:27:47;;;;;;;3.40;1.30;;;6.00;75.50;;;7.34;56.58;96738.78;5449757;26;20035;-36
2024/04/16 03:30:15;;;;;;;2.20;1.40;;;5.90;75.00;;;7.01;57.53;96753.75;5417405;26;20046;-37
2024/04/16 03:32:43;;;;;;;3.77;1.47;;;5.80;75.40;;;7.09;57.41;96746.69;5418140;26;20034;-37
2024/04/16 03:35:10;;;;;;;6.13;2.20;;;5.80;76.90;;;7.00;57.71;96730.91;5448630;26;20420;-37
2024/04/16 03:37:38;;;;;;;3.43;2.00;;;5.80;77.20;;;6.94;58.08;96740.34;5449670;26;20763;-37
2024/04/16 03:40:07;;;;;;;4.13;1.83;;;5.70;77.10;;;6.93;58.49;96738.69;5435659;26;20038;-36
2024/04/16 03:42:35;;;;;;;7.67;1.87;;;5.70;78.00;;;7.03;58.31;96749.94;5417425;26;20036;-36
2024/04/16 03:45:03;;;;;;;4.67;1.63;;;5.70;78.00;;;6.92;58.66;96752.91;5448976;26;20039;-36
2024/04/16 03:47:31;;;;;;;6.73;2.83;;;5.70;78.50;;;7.20;57.55;96750.84;5388058;26;20424;-36
2024/04/16 03:49:59;;;;;;;6.57;2.17;;;5.80;77.90;;;7.25;57.46;96750.34;5448554;26;20050;-36
2024/04/16 03:52:26;;;;;;;2.67;1.30;;;5.80;77.50;;;7.04;58.38;96756.09;5448402;26;20467;-36
2024/04/16 03:54:54;;;;;;;4.40;1.63;;;5.80;77.10;;;7.04;57.69;96761.38;5449024;26;20030;-36
2024/04/16 03:57:22;;;;;;;9.57;2.37;;;5.80;75.80;;;7.11;57.67;96749.16;5448324;26;20043;-36
2024/04/16 04:02:36;;;;;;;4.30;1.90;;;5.80;74.10;;;7.05;57.22;96755.09;5431956;26;20039;-36
2024/04/16 04:05:04;;;;;;;6.50;1.83;;;5.80;74.00;;;7.18;56.64;96765.22;5449028;26;20031;-36
2024/04/16 04:07:31;;;;;;;7.30;2.70;;;5.80;74.30;;;7.22;56.85;96762.09;5449291;26;20051;-36
2024/04/16 04:10:00;;;;;;;3.97;1.47;;;5.90;74.20;;;7.14;56.60;96754.13;5449171;26;20027;-36
2024/04/16 04:12:28;;;;;;;4.47;2.37;;;5.90;74.00;;;7.25;56.34;96768.88;5448533;26;20039;-36
2024/04/16 04:14:55;;;;;;;8.67;1.80;;;5.90;74.10;;;7.12;56.41;96750.00;5448898;26;20043;-36
2024/04/16 04:17:23;;;;;;;6.17;2.13;;;5.80;74.10;;;7.04;56.38;96743.69;5448994;26;20034;-37
2024/04/16 04:19:51;;;;;;;4.63;1.70;;;5.70;74.80;;;7.04;56.90;96753.44;5449145;26;20378;-37
2024/04/16 04:22:19;;;;;;;3.90;1.53;;;5.70;75.00;;;6.95;56.81;96749.13;5448782;26;20339;-36
2024/04/16 04:24:47;;;;;;;9.97;2.70;;;5.70;74.90;;;7.08;56.50;96752.13;5447927;26;20031;-36
2024/04/16 04:27:14;;;;;;;6.57;1.60;;;5.70;74.80;;;7.17;56.05;96758.25;5448421;26;20381;-36
2024/04/16 04:29:42;;;;;;;6.87;1.80;;;5.80;74.20;;;7.12;56.59;96756.13;5449205;26;20026;-36
2024/04/16 04:32:10;;;;;;;4.57;2.03;;;5.80;73.10;;;7.10;56.46;96763.38;5434367;26;20030;-37
2024/04/16 04:34:38;;;;;;;5.73;2.00;;;5.80;74.30;;;6.95;57.23;96755.22;5448334;26;20043;-36
2024/04/16 04:37:06;;;;;;;5.17;1.90;;;5.70;74.60;;;6.95;57.07;96752.56;5449228;26;20031;-37
2024/04/16 04:39:33;;;;;;;8.20;2.03;;;5.70;75.30;;;7.04;56.84;96745.50;5449675;26;20031;-37
2024/04/16 04:42:01;;;;;;;10.27;2.00;;;5.70;75.60;;;7.13;56.77;96746.34;5449007;26;20031;-36
2024/04/16 04:44:29;;;;;;;8.23;1.80;;;5.80;74.30;;;7.24;56.23;96757.47;5448299;26;20039;-37
2024/04/16 04:46:56;;;;;;;10.57;3.10;;;5.90;74.40;;;7.29;56.63;96749.06;5449214;26;20023;-37
2024/04/16 04:49:24;;;;;;;5.57;1.97;;;5.90;73.60;;;7.37;56.21;96762.28;5451343;26;20038;-36
2024/04/16 04:51:52;;;;;;;6.23;1.93;;;6.00;73.80;;;7.45;55.99;96767.59;5420886;26;20054;-37
2024/04/16 04:54:20;;;;;;;8.50;2.27;;;6.00;73.50;;;7.39;55.97;96762.13;5420362;26;20034;-37
2024/04/16 04:56:48;;;;;;;5.43;2.03;;;6.00;73.20;;;7.19;56.68;96762.44;5452415;26;20042;-36
2024/04/16 04:59:16;;;;;;;8.43;1.97;;;5.90;73.70;;;7.02;57.21;96784.53;5452540;26;20038;-37
2024/04/16 05:01:44;;;;;;;8.40;1.83;;;5.80;74.20;;;7.11;57.05;96759.72;5405583;26;20032;-37
2024/04/16 05:04:11;;;;;;;8.63;2.50;;;5.90;74.20;;;7.20;56.78;96766.72;5436606;26;20034;-37
2024/04/16 05:06:40;;;;;;;6.13;1.87;;;6.00;74.20;;;7.26;56.68;96765.25;5452066;26;20625;-36
2024/04/16 05:09:08;;;;;;;6.53;2.27;;;6.00;74.70;;;7.37;56.74;96783.47;5391206;26;20367;-36
2024/04/16 05:11:35;;;;;;;5.60;2.33;;;6.00;74.90;;;7.29;56.95;96786.94;5451289;26;20035;-37
2024/04/16 05:14:07;;;;;;;5.67;1.80;;;6.00;73.40;;;7.42;56.39;96765.25;5451788;26;20043;-36
2024/04/16 05:16:38;;;;;;;5.93;1.93;;;6.10;73.50;;;7.34;55.92;96778.50;5419365;26;20051;-37
2024/04/16 05:19:06;;;;;;;4.33;2.23;;;6.00;72.40;;;7.33;56.06;96789.25;5452101;26;20034;-36
2024/04/16 05:21:33;;;;;;;5.67;2.07;;;6.10;71.90;;;7.44;56.08;96786.28;5452135;26;20109;-36
2024/04/16 05:24:02;;;;;;;8.03;1.93;;;6.10;72.60;;;7.31;56.23;96776.19;5451261;26;20039;-36
2024/04/16 05:26:29;;;;;;;5.23;2.77;;;6.10;72.10;;;7.07;57.00;96763.69;5451952;26;20388;-36
2024/04/16 05:28:57;;;;;;;6.67;1.70;;;6.00;73.00;;;7.33;55.84;96771.56;5451577;26;20035;-36
2024/04/16 05:31:25;;;;;;;4.63;1.93;;;6.00;72.30;;;7.13;56.56;96784.22;5451242;26;20031;-36
2024/04/16 05:33:53;;;;;;;6.37;2.60;;;6.00;72.40;;;7.14;56.49;96772.66;5413906;26;20035;-37
2024/04/16 05:36:20;;;;;;;8.97;2.13;;;6.00;72.50;;;7.21;56.42;96778.13;5450420;26;20035;-36
2024/04/16 05:38:48;;;;;;;7.37;3.73;;;6.00;72.60;;;7.19;55.60;96783.59;5418457;26;20067;-36
2024/04/16 05:41:16;;;;;;;5.70;2.00;;;6.00;71.20;;;7.15;55.73;96794.66;5434320;26;20050;-36
2024/04/16 05:43:44;;;;;;;4.60;3.23;;;6.00;71.10;;;6.94;56.35;96784.47;5451086;26;20498;-36
2024/04/16 05:46:11;;;;;;;5.07;1.90;;;5.90;70.90;;;7.17;55.89;96792.69;5413206;26;20062;-36
2024/04/16 05:48:39;;;;;;;5.77;2.13;;;6.00;71.10;;;7.12;55.96;96784.41;5437629;26;20035;-36
2024/04/16 05:51:07;;;;;;;4.03;1.83;;;6.00;71.30;;;7.22;55.82;96800.97;5449482;26;20058;-36
2024/04/16 05:53:35;;;;;;;9.97;2.10;;;6.10;71.90;;;7.23;56.30;96782.28;5419066;26;20031;-36
2024/04/16 05:56:03;;;;;;;10.93;2.13;;;6.00;72.20;;;7.15;56.16;96789.38;5451067;26;20078;-36
2024/04/16 05:58:31;;;;;;;3.50;2.30;;;6.00;72.10;;;7.23;55.87;96794.69;5450921;26;20035;-36
2024/04/16 06:01:05;;;;;;;4.27;1.70;;;6.10;71.40;;;7.35;56.02;96790.75;5450885;26;20031;-36
2024/04/16 06:03:34;;;;;;;7.70;2.00;;;6.10;71.40;;;7.40;55.73;96790.25;5450670;26;20031;-36
2024/04/16 06:06:02;;;;;;;4.93;1.90;;;6.10;71.10;;;7.32;55.77;96784.94;5450197;26;20039;-36
2024/04/16 06:08:29;;;;;;;6.87;1.80;;;6.10;70.50;;;7.42;55.28;96782.97;5419677;26;20021;-37
2024/04/16 06:10:57;;;;;;;5.47;2.10;;;6.20;70.10;;;7.46;54.35;96790.47;5404299;26;20043;-36
2024/04/16 06:13:25;;;;;;;6.87;1.60;;;6.30;68.30;;;7.58;53.90;96796.28;5419901;26;20462;-36
2024/04/16 06:15:53;;;;;;;5.60;2.00;;;6.30;67.80;;;7.75;54.31;96786.50;5451230;26;20027;-36
2024/04/16 06:18:22;;;;;;;3.83;1.50;;;6.50;68.50;;;7.81;53.67;96795.63;5435706;26;20050;-36
2024/04/16 06:20:50;;;;;;;6.33;2.13;;;6.60;67.30;;;7.93;53.55;96801.41;5451373;26;20031;-36
2024/04/16 06:23:17;;;;;;;5.50;2.40;;;6.70;66.70;;;8.04;53.03;96787.84;5450962;26;20043;-37
2024/04/16 06:25:45;;;;;;;3.70;1.90;;;6.80;66.30;;;8.00;52.38;96789.16;5450697;26;20027;-37
2024/04/16 06:28:13;;;;;;;6.97;1.77;;;6.80;64.30;;;7.94;52.09;96795.97;5450837;26;20375;-37
2024/04/16 06:30:41;;;;;;;11.17;1.87;;;6.70;64.20;;;8.08;52.54;96792.66;5450822;26;20031;-36
2024/04/16 06:33:09;;;;;;;5.27;1.70;;;6.80;65.00;;;8.15;51.73;96784.84;5450747;26;20483;-37
2024/04/16 06:35:36;;;;;;;7.77;1.67;;;6.90;62.80;;;8.23;51.46;96792.81;5450146;26;20035;-36
2024/04/16 06:38:05;;;;;;;8.97;2.87;;;6.90;63.70;;;8.26;51.13;96791.66;5451121;26;20572;-36
2024/04/16 06:40:32;;;;;;;4.50;1.40;;;6.90;62.50;;;8.25;51.20;96785.50;5451074;26;20039;-37
2024/04/16 06:43:00;;;;;;;6.17;3.37;;;6.90;62.20;;;8.18;50.89;96789.84;5450896;26;20038;-36
2024/04/16 06:45:28;;;;;;;6.43;2.77;;;6.90;62.20;;;8.22;50.83;96785.00;5450446;26;20043;-37
2024/04/16 06:47:56;;;;;;;4.53;2.60;;;6.90;63.00;;;8.27;50.39;96782.69;5450754;26;20035;-37
2024/04/16 06:50:23;;;;;;;6.27;2.73;;;6.90;62.40;;;8.35;50.62;96785.31;5449447;26;20061;-37
2024/04/16 06:52:54;;;;;;;4.30;2.53;;;7.00;62.50;;;8.41;50.40;96787.38;5450163;26;20070;-36
2024/04/16 06:55:22;;;;;;;5.47;2.03;;;7.00;62.20;;;8.40;49.52;96788.31;5435858;26;20031;-37
2024/04/16 06:57:51;;;;;;;9.23;4.00;;;7.10;60.00;;;8.54;49.74;96786.81;5450832;26;20021;-37
2024/04/16 07:00:20;;;;;;;7.63;3.13;;;7.20;61.20;;;8.60;49.67;96793.28;5450706;26;20027;-37
2024/04/16 07:02:48;;;;;;;5.43;2.97;;;7.30;61.30;;;8.65;49.15;96796.25;5451191;26;20050;-37
2024/04/16 07:05:16;;;;;;;5.50;1.70;;;7.40;59.00;;;8.38;48.69;96789.50;5448981;26;20065;-37
2024/04/16 07:07:44;;;;;;;5.43;2.03;;;7.20;58.80;;;8.51;49.58;96795.13;5450310;26;20043;-37
2024/04/16 07:10:12;;;;;;;4.63;2.13;;;7.20;60.30;;;8.53;48.70;96792.28;5449635;26;20042;-37
2024/04/16 07:12:40;;;;;;;8.70;1.87;;;7.20;59.10;;;8.48;48.34;96787.50;5407175;26;20039;-37
2024/04/16 07:15:08;;;;;;;3.60;1.37;;;7.20;57.60;;;8.57;48.09;96783.84;5446438;26;20035;-36
2024/04/16 07:17:37;;;;;;;4.63;1.47;;;7.30;58.50;;;8.72;48.28;96796.41;5450303;26;20465;-36
2024/04/16 07:20:05;;;;;;;5.70;1.67;;;7.40;57.50;;;8.66;47.21;96774.03;5450358;26;20038;-36
2024/04/16 07:22:33;;;;;;;8.70;1.60;;;7.40;55.90;;;8.75;46.48;96775.66;5450588;26;20046;-37
2024/04/16 07:25:01;;;;;;;8.33;2.00;;;7.40;54.90;;;8.72;46.54;96764.56;5417721;26;20045;-37
2024/04/16 07:27:29;;;;;;;4.07;1.57;;;7.50;54.50;;;8.79;46.39;96770.84;5450176;26;20034;-37
2024/04/16 07:29:56;;;;;;;7.43;1.77;;;7.50;55.50;;;8.79;45.95;96771.66;5450441;26;20034;-37
2024/04/16 07:32:24;;;;;;;5.33;1.60;;;7.60;54.50;;;9.00;45.62;96755.16;5435845;26;20042;-37
2024/04/16 07:34:52;;;;;;;5.17;2.43;;;7.70;53.90;;;9.00;45.66;96752.50;5449685;26;20043;-37
2024/04/16 07:37:24;;;;;;;2.30;1.13;;;7.80;53.20;;;8.96;45.36;96759.16;5435595;26;20023;-37
2024/04/16 07:39:52;;;;;;;4.27;1.93;;;7.80;53.20;;;8.86;44.40;96745.28;5416799;26;20042;-37
2024/04/16 07:42:20;;;;;;;3.03;1.40;;;7.80;51.20;;;8.72;44.79;96732.72;5449590;26;20485;-37
2024/04/16 07:44:48;;;;;;;3.10;1.10;;;7.70;52.00;;;8.85;44.46;96733.00;5449287;26;20051;-37
2024/04/16 07:47:16;;;;;;;2.43;1.40;;;7.70;52.00;;;8.95;44.41;96728.28;5449758;26;20047;-40
2024/04/16 07:49:43;;;;;;;4.23;1.70;;;7.80;52.50;;;8.91;44.61;96718.19;5449798;26;20234;-37
2024/04/16 07:52:11;;;;;;;4.83;2.33;;;7.80;52.10;;;9.03;44.64;96717.66;5449630;26;20042;-37
2024/04/16 07:54:39;;;;;;;4.27;1.30;;;7.80;52.60;;;9.10;44.30;96725.72;5448255;26;20031;-37
2024/04/16 07:57:06;;;;;;;4.93;1.57;;;7.90;52.10;;;9.22;45.10;96734.13;5448492;26;20030;-37
2024/04/16 07:59:34;;;;;;;5.07;1.20;;;8.00;53.80;;;9.13;44.78;96722.75;5411719;26;20467;-36
2024/04/16 08:02:02;;;;;;;2.37;0.97;;;8.00;52.00;;;9.04;43.32;96737.88;5442980;26;20031;-37
2024/04/16 08:04:30;;;;;;;5.17;1.47;;;7.90;51.10;;;9.10;44.46;96738.19;5448957;26;20327;-37
2024/04/16 08:06:58;;;;;;;3.07;1.53;;;8.00;51.60;;;9.12;44.67;96726.38;5449489;26;20034;-37
2024/04/16 08:09:26;;;;;;;2.47;1.37;;;8.00;52.60;;;9.14;44.67;96732.34;5434855;26;20030;-37
2024/04/16 08:11:53;;;;;;;3.33;1.10;;;8.00;53.30;;;9.29;44.77;96729.78;5449320;26;20039;-37
2024/04/16 08:14:22;;;;;;;7.73;1.93;;;8.10;53.30;;;9.42;45.09;96731.84;5448405;26;20043;-37
2024/04/16 08:16:50;;;;;;;3.17;1.50;;;8.30;53.60;;;9.46;44.90;96738.47;5449200;26;20087;-37
2024/04/16 08:19:21;;;;;;;3.33;1.90;;;8.30;53.90;;;9.44;45.09;96741.31;5449170;26;20035;-37
2024/04/16 08:21:50;;;;;;;2.70;1.20;;;8.30;54.50;;;9.56;45.15;96730.28;5450836;26;20058;-37
2024/04/16 08:24:21;;;;;;;3.70;1.80;;;8.40;54.50;;;9.40;45.62;96729.38;5452468;26;20023;-37
2024/04/16 08:26:49;;;;;;;2.07;1.23;;;8.30;54.60;;;9.54;45.65;96721.63;5452353;26;20035;-37
2024/04/16 08:29:17;;;;;;;5.77;2.17;;;8.30;55.80;;;9.51;45.97;96749.38;5451212;26;20043;-37
2024/04/16 08:31:47;;;;;;;3.93;1.23;;;8.30;55.80;;;9.61;45.83;96730.56;5450612;26;20039;-39
2024/04/16 08:34:15;;;;;;;2.20;1.20;;;8.40;55.70;;;9.68;45.70;96723.53;5450299;26;20060;-40
2024/04/16 08:36:43;;;;;;;1.97;1.73;;;8.50;54.80;;;9.78;45.20;96728.59;5452469;26;20375;-39
2024/04/16 08:39:10;;;;;;;2.63;1.50;;;8.60;54.40;;;9.82;45.27;96721.94;5452414;26;20030;-40
2024/04/16 08:41:38;;;;;;;3.37;1.47;;;8.60;54.30;;;9.77;44.31;96716.31;5450432;26;20035;-40
2024/04/16 08:44:07;;;;;;;6.57;2.60;;;8.60;52.80;;;9.71;44.93;96695.75;5420018;26;20450;-40
2024/04/16 08:46:38;;;;;;;4.00;1.90;;;8.50;54.50;;;9.82;45.03;96705.97;5418610;26;20042;-40
2024/04/16 08:49:09;;;;;;;6.93;2.80;;;8.50;54.50;;;9.71;44.68;96695.75;5447469;26;20003;-40
2024/04/16 08:51:38;;;;;;;4.43;2.30;;;8.50;53.90;;;9.81;45.12;96686.56;5452581;26;20530;-40
2024/04/16 08:54:09;;;;;;;4.67;1.27;;;8.50;54.30;;;9.75;45.09;96681.09;5420022;26;20039;-40
2024/04/16 08:56:37;;;;;;;3.10;1.30;;;8.50;54.50;;;9.83;44.86;96702.31;5452466;26;20023;-40
2024/04/16 08:59:05;;;;;;;3.33;1.10;;;8.50;54.50;;;9.75;45.04;96689.09;5452609;26;20046;-40
2024/04/16 09:01:35;;;;;;;3.03;1.13;;;8.60;54.10;;;9.70;44.36;96686.16;5390690;26;20030;-40
2024/04/16 09:04:04;;;;;;;5.07;2.63;;;8.60;52.60;;;9.80;44.78;96676.09;5420534;26;20027;-40
2024/04/16 09:06:32;;;;;;;1.87;1.30;;;8.70;53.40;;;10.00;44.86;96700.31;5452258;26;20038;-40
2024/04/16 09:09:04;;;;;;;3.03;0.93;;;8.90;52.90;;;10.11;44.38;96715.84;5452068;26;20034;-40
2024/04/16 09:11:38;;;;;;;4.87;1.63;;;9.10;52.30;;;10.07;43.33;96698.59;5439499;26;20513;-40
2024/04/16 09:14:07;;;;;;;3.53;1.27;;;9.10;51.70;;;10.16;43.73;96710.00;5420112;26;20103;-40
2024/04/16 09:16:35;;;;;;;4.67;1.60;;;9.20;51.50;;;10.14;43.91;96710.19;5420346;26;20042;-40
2024/04/16 09:19:13;;;;;;;3.00;1.20;;;9.30;52.40;;;10.30;44.00;96703.88;5451165;26;20355;-39
2024/04/16 09:21:41;;;;;;;4.53;1.23;;;9.30;52.00;;;10.29;43.11;96720.81;5451205;26;20047;-40
2024/04/16 09:24:10;;;;;;;3.67;1.23;;;9.30;51.00;;;10.47;43.77;96711.69;5449437;26;20031;-40
2024/04/16 09:26:38;;;;;;;2.10;1.30;;;9.40;51.20;;;10.44;43.42;96704.91;5451651;26;20039;-40
2024/04/16 09:29:07;;;;;;;1.67;1.30;;;9.40;51.80;;;10.54;43.22;96726.75;5450367;26;20038;-40
2024/04/16 09:31:34;;;;;;;3.97;1.30;;;9.50;51.10;;;10.56;43.57;96700.75;5451435;26;20458;-40
2024/04/16 09:34:07;;;;;;;4.30;1.20;;;9.50;51.30;;;10.68;43.81;96694.97;5450439;26;20030;-40
2024/04/16 09:36:45;;;;;;;3.60;1.10;;;9.60;51.80;;;10.71;43.20;96699.94;5452138;26;20111;-40
2024/04/16 09:39:21;;;;;;;2.77;1.40;;;9.60;51.70;;;10.78;43.27;96698.22;5451565;26;20039;-40
2024/04/16 09:41:52;;;;;;;2.43;1.07;;;9.70;51.60;;;10.77;43.14;96710.66;5418944;26;20094;-41
2024/04/16 09:44:19;;;;;;;0.77;0.73;;;9.70;52.00;;;10.85;43.26;96699.09;5451187;26;20044;-40
2024/04/16 09:46:47;;;;;;;2.73;1.30;;;9.70;52.00;;;10.79;43.13;96699.84;5451535;26;20524;-40
2024/04/16 09:49:21;;;;;;;2.43;1.73;;;9.60;52.00;;;10.88;43.55;96714.72;5417808;26;20070;-40
2024/04/16 09:52:01;;;;;;;5.33;1.40;;;9.70;52.80;;;10.71;43.76;96715.91;5450980;26;20030;-40
2024/04/16 09:54:31;;;;;;;0.93;0.73;;;9.50;52.40;;;10.68;43.92;96716.28;5405765;26;20356;-40
2024/04/16 09:57:01;;;;;;;3.33;1.00;;;9.40;52.50;;;10.74;44.24;96708.41;5420336;26;20035;-40
2024/04/16 09:59:29;;;;;;;1.40;0.83;;;9.40;54.00;;;10.67;44.52;96714.63;5404957;26;20042;-40
2024/04/16 10:01:58;;;;;;;2.33;1.10;;;9.40;54.60;;;10.73;44.68;96716.56;5451200;26;20034;-40
2024/04/16 10:04:27;;;;;;;3.27;1.00;;;9.40;54.50;;;10.77;44.42;96713.34;5419206;26;20036;-40
2024/04/16 10:06:55;;;;;;;3.07;1.90;;;9.50;54.40;;;10.62;44.86;96709.84;5419746;26;20031;-40
2024/04/16 10:09:24;;;;;;;3.03;2.20;;;9.30;54.80;;;10.52;44.92;96710.13;5449787;26;20035;-40
2024/04/16 10:11:52;;;;;;;2.50;0.97;;;9.20;55.40;;;10.27;45.67;96753.94;5451278;26;20026;-40
2024/04/16 10:14:20;;;;;;;2.47;0.80;;;8.90;57.00;;;9.98;47.02;96721.81;5418044;26;20349;-39
2024/04/16 10:16:48;;;;;;;1.53;1.17;;;8.70;58.50;;;10.11;47.36;96715.84;5419575;26;20035;-39
2024/04/16 10:19:17;;;;;;;3.57;1.00;;;8.70;59.70;;;10.05;48.40;96714.72;5451063;26;20043;-40
2024/04/16 10:21:49;;;;;;;2.23;1.00;;;8.80;61.50;;;10.14;48.43;96709.34;5417826;26;20026;-40
2024/04/16 10:24:19;;;;;;;2.83;0.93;;;8.70;62.70;;;10.05;48.74;96714.72;5450411;26;20031;-40
2024/04/16 10:26:48;;;;;;;3.93;1.03;;;8.70;62.60;;;10.02;49.31;96714.25;5450547;26;20034;-39
2024/04/16 10:29:25;;;;;;;0.90;0.70;;;8.60;63.50;;;10.19;49.58;96721.09;5450496;26;20036;-39
2024/04/16 10:31:54;;;;;;;2.70;1.23;;;8.80;65.60;;;10.04;50.38;96737.03;5451080;26;20035;-39
2024/04/16 10:34:24;;;;;;;7.90;1.30;;;8.70;65.20;;;9.86;51.35;96708.09;5450498;26;20035;-39
2024/04/16 10:36:56;;;;;;;4.20;1.93;;;8.60;66.00;;;10.02;51.27;96707.13;5450956;26;20430;-39
2024/04/16 10:39:33;;;;;;;4.03;1.17;;;8.60;67.30;;;9.92;51.44;96706.53;5448682;26;20377;-39